sensor_id;sensor_type;location;lat;lon;timestamp;pressure;altitude;pressure_sealevel;temperature;humidity
42169;BME280;27838;43.858;25.974;2022-09-09T00:00:17;101022.38;;;23.83;44.29
42169;BME280;27838;43.858;25.974;2022-09-09T00:03:07;101021.38;;;23.86;44.38
42169;BME280;27838;43.858;25.974;2022-09-09T00:05:50;101028.41;;;23.87;44.21
42169;BME280;27838;43.858;25.974;2022-09-09T00:08:21;101016.50;;;23.77;44.32
42169;BME280;27838;43.858;25.974;2022-09-09T00:10:58;101028.34;;;23.88;44.08
42169;BME280;27838;43.858;25.974;2022-09-09T00:16:04;101030.47;;;23.82;43.98
42169;BME280;27838;43.858;25.974;2022-09-09T00:21:33;101032.13;;;23.84;44.04
42169;BME280;27838;43.858;25.974;2022-09-09T00:24:00;101031.72;;;23.92;43.95
42169;BME280;27838;43.858;25.974;2022-09-09T00:26:45;101040.41;;;23.96;43.71
42169;BME280;27838;43.858;25.974;2022-09-09T00:29:35;101032.88;;;24.04;43.56
42169;BME280;27838;43.858;25.974;2022-09-09T00:32:15;101035.31;;;24.08;43.49
42169;BME280;27838;43.858;25.974;2022-09-09T00:34:52;101032.09;;;24.02;43.25
42169;BME280;27838;43.858;25.974;2022-09-09T00:37:22;101022.56;;;23.98;43.29
42169;BME280;27838;43.858;25.974;2022-09-09T00:39:54;101035.25;;;24.10;43.34
42169;BME280;27838;43.858;25.974;2022-09-09T00:42:26;101028.66;;;24.17;42.84
42169;BME280;27838;43.858;25.974;2022-09-09T00:45:41;101037.19;;;24.24;42.74
42169;BME280;27838;43.858;25.974;2022-09-09T00:48:14;101035.38;;;24.24;42.55
42169;BME280;27838;43.858;25.974;2022-09-09T00:50:56;101033.56;;;24.25;42.48
42169;BME280;27838;43.858;25.974;2022-09-09T00:56:36;101033.50;;;24.09;42.78
42169;BME280;27838;43.858;25.974;2022-09-09T01:01:36;101029.94;;;24.10;42.70
42169;BME280;27838;43.858;25.974;2022-09-09T01:04:09;101024.59;;;24.10;42.66
42169;BME280;27838;43.858;25.974;2022-09-09T01:06:41;101026.31;;;24.11;42.63
42169;BME280;27838;43.858;25.974;2022-09-09T01:09:28;101021.59;;;24.16;42.69
42169;BME280;27838;43.858;25.974;2022-09-09T01:17:53;101017.94;;;24.19;42.45
42169;BME280;27838;43.858;25.974;2022-09-09T01:20:13;101016.91;;;24.21;42.26
42169;BME280;27838;43.858;25.974;2022-09-09T01:23:00;101015.34;;;24.17;42.24
42169;BME280;27838;43.858;25.974;2022-09-09T01:28:16;101021.53;;;24.00;42.48
42169;BME280;27838;43.858;25.974;2022-09-09T01:30:45;101003.94;;;23.98;42.57
42169;BME280;27838;43.858;25.974;2022-09-09T01:33:17;100998.28;;;24.04;42.54
42169;BME280;27838;43.858;25.974;2022-09-09T01:35:52;101003.53;;;24.05;42.29
42169;BME280;27838;43.858;25.974;2022-09-09T01:38:21;100998.53;;;23.99;42.32
42169;BME280;27838;43.858;25.974;2022-09-09T01:40:48;101001.91;;;23.85;42.46
42169;BME280;27838;43.858;25.974;2022-09-09T01:43:18;100997.66;;;23.81;42.70
42169;BME280;27838;43.858;25.974;2022-09-09T01:45:48;100993.63;;;23.72;42.78
42169;BME280;27838;43.858;25.974;2022-09-09T01:48:16;101002.50;;;23.73;42.67
42169;BME280;27838;43.858;25.974;2022-09-09T01:50:44;100993.63;;;23.72;42.61
42169;BME280;27838;43.858;25.974;2022-09-09T01:53:11;100997.41;;;23.68;42.57
42169;BME280;27838;43.858;25.974;2022-09-09T01:55:40;100989.34;;;23.70;42.59
42169;BME280;27838;43.858;25.974;2022-09-09T01:58:47;100990.91;;;23.74;42.54
42169;BME280;27838;43.858;25.974;2022-09-09T02:01:37;100990.53;;;23.64;42.64
42169;BME280;27838;43.858;25.974;2022-09-09T02:06:53;100996.50;;;23.33;43.19
42169;BME280;27838;43.858;25.974;2022-09-09T02:09:23;100988.97;;;23.24;43.24
42169;BME280;27838;43.858;25.974;2022-09-09T02:12:02;100988.63;;;23.12;43.55
42169;BME280;27838;43.858;25.974;2022-09-09T02:14:34;100988.78;;;23.09;43.59
42169;BME280;27838;43.858;25.974;2022-09-09T02:17:10;100992.47;;;23.07;43.66
42169;BME280;27838;43.858;25.974;2022-09-09T02:19:47;100990.91;;;23.01;43.69
42169;BME280;27838;43.858;25.974;2022-09-09T02:22:17;100997.84;;;23.05;43.59
42169;BME280;27838;43.858;25.974;2022-09-09T02:24:46;100990.50;;;23.10;43.45
42169;BME280;27838;43.858;25.974;2022-09-09T02:27:14;100999.97;;;23.16;43.19
42169;BME280;27838;43.858;25.974;2022-09-09T02:29:42;101004.78;;;23.27;43.07
42169;BME280;27838;43.858;25.974;2022-09-09T02:32:15;100999.94;;;23.35;42.86
42169;BME280;27838;43.858;25.974;2022-09-09T02:34:45;101007.69;;;23.40;42.57
42169;BME280;27838;43.858;25.974;2022-09-09T02:37:15;101017.00;;;23.48;42.63
42169;BME280;27838;43.858;25.974;2022-09-09T02:39:44;101035.34;;;23.54;42.95
42169;BME280;27838;43.858;25.974;2022-09-09T02:42:11;101028.78;;;23.62;42.66
42169;BME280;27838;43.858;25.974;2022-09-09T02:44:40;101025.63;;;23.71;42.85
42169;BME280;27838;43.858;25.974;2022-09-09T02:47:29;101021.72;;;23.78;42.71
42169;BME280;27838;43.858;25.974;2022-09-09T02:50:04;101023.34;;;23.82;42.32
42169;BME280;27838;43.858;25.974;2022-09-09T02:55:38;101010.66;;;23.87;41.42
42169;BME280;27838;43.858;25.974;2022-09-09T02:58:10;101014.72;;;23.94;41.76
42169;BME280;27838;43.858;25.974;2022-09-09T03:00:38;101010.19;;;23.97;41.50
42169;BME280;27838;43.858;25.974;2022-09-09T03:03:07;101018.16;;;23.97;41.91
42169;BME280;27838;43.858;25.974;2022-09-09T03:05:34;101017.88;;;24.03;41.49
42169;BME280;27838;43.858;25.974;2022-09-09T03:08:03;101010.97;;;23.99;40.92
42169;BME280;27838;43.858;25.974;2022-09-09T03:10:31;101013.47;;;24.02;40.96
42169;BME280;27838;43.858;25.974;2022-09-09T03:12:58;101009.88;;;24.03;41.23
42169;BME280;27838;43.858;25.974;2022-09-09T03:15:25;101001.97;;;24.01;41.38
42169;BME280;27838;43.858;25.974;2022-09-09T03:17:54;101000.00;;;24.05;41.15
42169;BME280;27838;43.858;25.974;2022-09-09T03:20:22;101001.72;;;24.06;40.94
42169;BME280;27838;43.858;25.974;2022-09-09T03:22:51;100996.25;;;24.09;40.92
42169;BME280;27838;43.858;25.974;2022-09-09T03:25:18;100987.47;;;24.07;40.78
42169;BME280;27838;43.858;25.974;2022-09-09T03:27:45;101002.19;;;23.97;41.08
42169;BME280;27838;43.858;25.974;2022-09-09T03:30:12;100995.88;;;23.82;41.16
42169;BME280;27838;43.858;25.974;2022-09-09T03:32:39;100999.31;;;23.84;41.20
42169;BME280;27838;43.858;25.974;2022-09-09T03:35:05;101005.41;;;23.86;40.99
42169;BME280;27838;43.858;25.974;2022-09-09T03:37:32;101007.94;;;23.89;41.06
42169;BME280;27838;43.858;25.974;2022-09-09T03:39:59;101007.13;;;23.87;40.92
42169;BME280;27838;43.858;25.974;2022-09-09T03:42:25;101004.63;;;23.84;41.33
42169;BME280;27838;43.858;25.974;2022-09-09T03:44:52;101003.09;;;23.78;41.67
42169;BME280;27838;43.858;25.974;2022-09-09T03:47:20;101004.97;;;23.76;41.95
42169;BME280;27838;43.858;25.974;2022-09-09T03:49:47;101009.31;;;23.79;41.59
42169;BME280;27838;43.858;25.974;2022-09-09T03:52:15;101004.84;;;23.79;41.11
42169;BME280;27838;43.858;25.974;2022-09-09T03:54:41;101005.75;;;23.78;41.33
42169;BME280;27838;43.858;25.974;2022-09-09T03:57:09;101013.75;;;23.78;41.82
42169;BME280;27838;43.858;25.974;2022-09-09T03:59:36;101006.41;;;23.83;41.28
42169;BME280;27838;43.858;25.974;2022-09-09T04:02:03;101001.25;;;23.80;41.22
42169;BME280;27838;43.858;25.974;2022-09-09T04:04:30;101009.19;;;23.82;41.38
42169;BME280;27838;43.858;25.974;2022-09-09T04:06:57;101008.22;;;23.83;41.09
42169;BME280;27838;43.858;25.974;2022-09-09T04:09:23;101012.88;;;23.78;41.18
42169;BME280;27838;43.858;25.974;2022-09-09T04:11:50;101011.34;;;23.73;41.54
42169;BME280;27838;43.858;25.974;2022-09-09T04:14:18;101008.69;;;23.73;41.17
42169;BME280;27838;43.858;25.974;2022-09-09T04:16:45;101015.56;;;23.78;41.16
42169;BME280;27838;43.858;25.974;2022-09-09T04:19:12;101013.75;;;23.78;41.22
42169;BME280;27838;43.858;25.974;2022-09-09T04:21:40;101020.53;;;23.85;40.97
42169;BME280;27838;43.858;25.974;2022-09-09T04:24:08;101018.81;;;23.84;40.58
42169;BME280;27838;43.858;25.974;2022-09-09T04:26:36;101013.22;;;23.71;41.02
42169;BME280;27838;43.858;25.974;2022-09-09T04:29:03;101000.84;;;23.70;41.32
42169;BME280;27838;43.858;25.974;2022-09-09T04:31:32;101001.88;;;23.68;40.90
42169;BME280;27838;43.858;25.974;2022-09-09T04:33:58;101003.28;;;23.75;41.02
42169;BME280;27838;43.858;25.974;2022-09-09T04:36:27;101008.41;;;23.78;41.12
42169;BME280;27838;43.858;25.974;2022-09-09T04:38:54;101014.50;;;23.82;41.18
42169;BME280;27838;43.858;25.974;2022-09-09T04:41:21;101019.72;;;23.83;41.26
42169;BME280;27838;43.858;25.974;2022-09-09T04:43:48;101011.66;;;23.85;40.79
42169;BME280;27838;43.858;25.974;2022-09-09T04:46:14;101019.50;;;23.88;41.18
42169;BME280;27838;43.858;25.974;2022-09-09T04:48:42;101017.69;;;23.88;41.05
42169;BME280;27838;43.858;25.974;2022-09-09T04:51:12;101021.31;;;23.87;40.92
42169;BME280;27838;43.858;25.974;2022-09-09T04:53:39;101020.34;;;23.88;41.31
42169;BME280;27838;43.858;25.974;2022-09-09T04:58:32;101016.06;;;23.86;41.19
42169;BME280;27838;43.858;25.974;2022-09-09T05:01:07;101013.25;;;23.89;40.89
42169;BME280;27838;43.858;25.974;2022-09-09T05:03:33;101013.97;;;23.92;41.24
42169;BME280;27838;43.858;25.974;2022-09-09T05:06:11;101008.63;;;23.92;41.21
42169;BME280;27838;43.858;25.974;2022-09-09T05:08:39;101011.84;;;23.99;41.22
42169;BME280;27838;43.858;25.974;2022-09-09T05:11:17;101017.88;;;24.03;41.15
42169;BME280;27838;43.858;25.974;2022-09-09T05:13:44;101018.66;;;24.05;41.10
42169;BME280;27838;43.858;25.974;2022-09-09T05:16:12;101014.09;;;24.07;41.20
42169;BME280;27838;43.858;25.974;2022-09-09T05:18:40;101010.16;;;24.14;40.93
42169;BME280;27838;43.858;25.974;2022-09-09T05:21:11;101013.47;;;24.19;40.93
42169;BME280;27838;43.858;25.974;2022-09-09T05:23:38;101017.22;;;24.15;41.09
42169;BME280;27838;43.858;25.974;2022-09-09T05:26:05;101018.94;;;24.16;41.15
42169;BME280;27838;43.858;25.974;2022-09-09T05:28:34;101029.13;;;24.25;41.34
42169;BME280;27838;43.858;25.974;2022-09-09T05:31:05;101023.31;;;24.35;41.12
42169;BME280;27838;43.858;25.974;2022-09-09T05:33:34;101015.16;;;24.38;41.13
42169;BME280;27838;43.858;25.974;2022-09-09T05:36:06;101021.25;;;24.40;40.70
42169;BME280;27838;43.858;25.974;2022-09-09T05:38:33;101008.88;;;24.39;40.71
42169;BME280;27838;43.858;25.974;2022-09-09T05:41:02;101017.97;;;24.35;40.66
42169;BME280;27838;43.858;25.974;2022-09-09T05:43:29;101011.78;;;24.34;40.78
42169;BME280;27838;43.858;25.974;2022-09-09T05:46:03;101021.09;;;24.43;40.47
42169;BME280;27838;43.858;25.974;2022-09-09T05:48:32;101015.16;;;24.55;40.80
42169;BME280;27838;43.858;25.974;2022-09-09T05:51:03;101012.75;;;24.66;40.45
42169;BME280;27838;43.858;25.974;2022-09-09T05:53:30;101003.47;;;24.74;40.52
42169;BME280;27838;43.858;25.974;2022-09-09T05:56:07;100992.47;;;24.80;40.21
42169;BME280;27838;43.858;25.974;2022-09-09T05:58:36;100993.78;;;24.73;40.34
42169;BME280;27838;43.858;25.974;2022-09-09T06:01:09;100996.06;;;24.79;40.71
42169;BME280;27838;43.858;25.974;2022-09-09T06:03:38;100994.03;;;24.84;40.31
42169;BME280;27838;43.858;25.974;2022-09-09T06:06:10;100989.00;;;24.78;40.38
42169;BME280;27838;43.858;25.974;2022-09-09T06:08:39;100989.13;;;24.76;40.08
42169;BME280;27838;43.858;25.974;2022-09-09T06:11:08;100985.84;;;24.87;39.92
42169;BME280;27838;43.858;25.974;2022-09-09T06:13:36;100979.47;;;24.90;40.06
42169;BME280;27838;43.858;25.974;2022-09-09T06:16:05;100980.78;;;24.98;40.48
42169;BME280;27838;43.858;25.974;2022-09-09T06:18:32;100979.47;;;25.05;40.01
42169;BME280;27838;43.858;25.974;2022-09-09T06:21:00;100969.31;;;25.12;39.89
42169;BME280;27838;43.858;25.974;2022-09-09T06:23:29;100976.47;;;25.28;40.00
42169;BME280;27838;43.858;25.974;2022-09-09T06:26:32;100980.25;;;25.39;39.48
42169;BME280;27838;43.858;25.974;2022-09-09T06:28:57;100986.25;;;25.43;39.66
42169;BME280;27838;43.858;25.974;2022-09-09T06:31:26;100990.72;;;25.58;39.55
42169;BME280;27838;43.858;25.974;2022-09-09T06:33:55;100999.19;;;25.65;38.91
42169;BME280;27838;43.858;25.974;2022-09-09T06:36:24;101000.16;;;25.64;38.76
42169;BME280;27838;43.858;25.974;2022-09-09T06:38:51;100996.00;;;25.74;39.22
42169;BME280;27838;43.858;25.974;2022-09-09T06:41:21;100996.97;;;25.88;39.19
42169;BME280;27838;43.858;25.974;2022-09-09T06:43:48;100996.06;;;26.03;39.16
42169;BME280;27838;43.858;25.974;2022-09-09T06:46:17;100988.88;;;26.19;39.36
42169;BME280;27838;43.858;25.974;2022-09-09T06:48:44;100987.13;;;26.33;39.04
42169;BME280;27838;43.858;25.974;2022-09-09T06:51:14;100983.91;;;26.42;38.37
42169;BME280;27838;43.858;25.974;2022-09-09T06:53:42;100979.81;;;26.51;37.60
42169;BME280;27838;43.858;25.974;2022-09-09T06:58:45;100991.16;;;26.54;37.13
42169;BME280;27838;43.858;25.974;2022-09-09T07:01:14;100990.75;;;26.61;37.33
42169;BME280;27838;43.858;25.974;2022-09-09T07:03:44;100993.66;;;26.72;36.97
42169;BME280;27838;43.858;25.974;2022-09-09T07:06:16;100995.16;;;26.76;36.71
42169;BME280;27838;43.858;25.974;2022-09-09T07:08:47;100993.06;;;26.81;36.84
42169;BME280;27838;43.858;25.974;2022-09-09T07:11:14;100991.78;;;26.87;36.91
42169;BME280;27838;43.858;25.974;2022-09-09T07:13:41;100994.00;;;26.94;36.96
42169;BME280;27838;43.858;25.974;2022-09-09T07:16:14;100992.53;;;27.03;36.83
42169;BME280;27838;43.858;25.974;2022-09-09T07:18:41;100986.38;;;27.16;36.36
42169;BME280;27838;43.858;25.974;2022-09-09T07:21:10;100987.78;;;27.21;36.18
42169;BME280;27838;43.858;25.974;2022-09-09T07:23:39;100982.69;;;27.31;36.70
42169;BME280;27838;43.858;25.974;2022-09-09T07:26:17;100988.69;;;27.35;36.43
42169;BME280;27838;43.858;25.974;2022-09-09T07:28:44;100981.34;;;27.38;36.19
42169;BME280;27838;43.858;25.974;2022-09-09T07:31:32;100987.22;;;27.43;36.22
42169;BME280;27838;43.858;25.974;2022-09-09T07:34:00;100990.38;;;27.50;36.10
42169;BME280;27838;43.858;25.974;2022-09-09T07:36:29;100993.28;;;27.60;36.19
42169;BME280;27838;43.858;25.974;2022-09-09T07:38:59;100987.84;;;27.74;37.43
42169;BME280;27838;43.858;25.974;2022-09-09T07:41:31;100984.13;;;27.90;36.46
42169;BME280;27838;43.858;25.974;2022-09-09T07:43:59;100989.63;;;28.01;37.70
42169;BME280;27838;43.858;25.974;2022-09-09T07:46:29;100990.25;;;28.04;36.09
42169;BME280;27838;43.858;25.974;2022-09-09T07:48:56;101001.50;;;28.10;36.67
42169;BME280;27838;43.858;25.974;2022-09-09T07:51:32;101003.34;;;28.22;36.46
42169;BME280;27838;43.858;25.974;2022-09-09T07:54:02;101007.44;;;28.28;36.60
42169;BME280;27838;43.858;25.974;2022-09-09T07:56:30;101009.78;;;28.32;36.48
42169;BME280;27838;43.858;25.974;2022-09-09T07:58:58;100996.78;;;28.39;37.49
42169;BME280;27838;43.858;25.974;2022-09-09T08:04:01;100986.28;;;28.49;36.77
42169;BME280;27838;43.858;25.974;2022-09-09T08:06:31;100992.19;;;28.54;36.18
42169;BME280;27838;43.858;25.974;2022-09-09T08:08:59;100992.19;;;28.54;34.89
42169;BME280;27838;43.858;25.974;2022-09-09T08:11:28;100991.53;;;28.63;35.16
42169;BME280;27838;43.858;25.974;2022-09-09T08:13:56;101001.06;;;28.67;35.72
42169;BME280;27838;43.858;25.974;2022-09-09T08:16:25;100996.44;;;28.69;35.21
42169;BME280;27838;43.858;25.974;2022-09-09T08:18:52;101008.69;;;28.73;35.62
42169;BME280;27838;43.858;25.974;2022-09-09T08:21:25;101005.44;;;28.81;34.75
42169;BME280;27838;43.858;25.974;2022-09-09T08:23:54;101007.22;;;28.93;34.91
42169;BME280;27838;43.858;25.974;2022-09-09T08:26:26;100993.69;;;28.95;34.47
42169;BME280;27838;43.858;25.974;2022-09-09T08:28:56;100981.53;;;29.02;34.79
42169;BME280;27838;43.858;25.974;2022-09-09T08:31:31;100971.44;;;29.06;34.90
42169;BME280;27838;43.858;25.974;2022-09-09T08:33:59;100973.56;;;29.13;35.58
42169;BME280;27838;43.858;25.974;2022-09-09T08:36:28;100975.06;;;29.17;34.98
42169;BME280;27838;43.858;25.974;2022-09-09T08:38:56;100959.16;;;29.14;34.40
42169;BME280;27838;43.858;25.974;2022-09-09T08:44:40;100956.19;;;29.19;35.32
42169;BME280;27838;43.858;25.974;2022-09-09T08:55:44;100937.88;;;29.48;35.71
42169;BME280;27838;43.858;25.974;2022-09-09T08:58:19;100945.22;;;29.58;35.94
42169;BME280;27838;43.858;25.974;2022-09-09T09:11:55;100931.75;;;29.82;34.93
42169;BME280;27838;43.858;25.974;2022-09-09T09:14:28;100925.03;;;29.87;35.33
42169;BME280;27838;43.858;25.974;2022-09-09T09:17:04;100920.50;;;29.88;36.44
42169;BME280;27838;43.858;25.974;2022-09-09T09:19:34;100930.19;;;29.90;36.41
42169;BME280;27838;43.858;25.974;2022-09-09T09:22:18;100928.56;;;29.88;35.59
42169;BME280;27838;43.858;25.974;2022-09-09T09:24:54;100930.19;;;29.90;34.97
42169;BME280;27838;43.858;25.974;2022-09-09T09:27:31;100931.75;;;29.93;34.94
42169;BME280;27838;43.858;25.974;2022-09-09T09:30:02;100927.75;;;29.99;35.36
42169;BME280;27838;43.858;25.974;2022-09-09T09:32:34;100919.94;;;29.96;35.77
42169;BME280;27838;43.858;25.974;2022-09-09T09:35:06;100910.38;;;29.91;35.71
42169;BME280;27838;43.858;25.974;2022-09-09T09:37:35;100901.69;;;29.88;36.28
42169;BME280;27838;43.858;25.974;2022-09-09T09:40:13;100906.72;;;29.92;36.34
42169;BME280;27838;43.858;25.974;2022-09-09T09:42:55;100906.84;;;29.91;35.70
42169;BME280;27838;43.858;25.974;2022-09-09T09:48:08;100900.63;;;30.02;37.08
42169;BME280;27838;43.858;25.974;2022-09-09T09:53:25;100893.91;;;30.07;35.35
42169;BME280;27838;43.858;25.974;2022-09-09T09:55:59;100897.34;;;30.09;36.09
42169;BME280;27838;43.858;25.974;2022-09-09T09:58:33;100890.22;;;30.08;36.68
42169;BME280;27838;43.858;25.974;2022-09-09T10:01:04;100891.56;;;30.14;36.94
42169;BME280;27838;43.858;25.974;2022-09-09T10:03:33;100895.47;;;30.21;36.37
42169;BME280;27838;43.858;25.974;2022-09-09T10:06:05;100899.53;;;30.27;36.16
42169;BME280;27838;43.858;25.974;2022-09-09T10:08:34;100894.25;;;30.25;36.52
42169;BME280;27838;43.858;25.974;2022-09-09T10:19:05;100896.56;;;30.64;36.32
42169;BME280;27838;43.858;25.974;2022-09-09T10:22:04;100900.06;;;30.76;34.75
42169;BME280;27838;43.858;25.974;2022-09-09T10:25:05;100902.97;;;30.84;35.47
42169;BME280;27838;43.858;25.974;2022-09-09T10:28:09;100897.34;;;30.87;34.51
42169;BME280;27838;43.858;25.974;2022-09-09T10:30:43;100894.50;;;30.88;34.57
42169;BME280;27838;43.858;25.974;2022-09-09T10:36:23;100893.69;;;30.88;35.00
42169;BME280;27838;43.858;25.974;2022-09-09T10:42:06;100891.94;;;30.87;33.00
42169;BME280;27838;43.858;25.974;2022-09-09T10:50:55;100886.81;;;30.95;30.49
42169;BME280;27838;43.858;25.974;2022-09-09T10:56:18;100878.66;;;31.18;31.34
42169;BME280;27838;43.858;25.974;2022-09-09T11:01:28;100876.34;;;31.34;30.08
42169;BME280;27838;43.858;25.974;2022-09-09T11:06:41;100873.81;;;31.54;31.03
42169;BME280;27838;43.858;25.974;2022-09-09T11:09:17;100874.72;;;31.64;31.79
42169;BME280;27838;43.858;25.974;2022-09-09T11:11:57;100869.53;;;31.72;30.42
42169;BME280;27838;43.858;25.974;2022-09-09T11:14:34;100869.41;;;31.84;31.27
42169;BME280;27838;43.858;25.974;2022-09-09T11:17:16;100871.59;;;31.90;30.17
42169;BME280;27838;43.858;25.974;2022-09-09T11:19:45;100871.19;;;31.94;30.48
42169;BME280;27838;43.858;25.974;2022-09-09T11:24:51;100857.56;;;31.96;29.76
42169;BME280;27838;43.858;25.974;2022-09-09T11:30:31;100856.19;;;32.02;29.67
42169;BME280;27838;43.858;25.974;2022-09-09T11:33:09;100857.75;;;32.04;31.21
42169;BME280;27838;43.858;25.974;2022-09-09T11:38:46;100850.75;;;31.92;32.36
42169;BME280;27838;43.858;25.974;2022-09-09T11:41:14;100849.72;;;31.83;31.89
42169;BME280;27838;43.858;25.974;2022-09-09T11:43:47;100853.94;;;31.76;31.44
42169;BME280;27838;43.858;25.974;2022-09-09T11:46:16;100844.69;;;31.69;31.90
42169;BME280;27838;43.858;25.974;2022-09-09T11:48:45;100842.53;;;31.62;33.18
42169;BME280;27838;43.858;25.974;2022-09-09T11:51:33;100842.66;;;31.61;34.08
42169;BME280;27838;43.858;25.974;2022-09-09T11:56:54;100836.69;;;31.57;33.50
42169;BME280;27838;43.858;25.974;2022-09-09T11:59:30;100834.16;;;31.56;32.33
42169;BME280;27838;43.858;25.974;2022-09-09T12:02:03;100839.25;;;31.59;32.94
42169;BME280;27838;43.858;25.974;2022-09-09T12:04:40;100837.25;;;31.61;34.72
42169;BME280;27838;43.858;25.974;2022-09-09T12:09:51;100830.63;;;31.65;32.47
42169;BME280;27838;43.858;25.974;2022-09-09T12:12:25;100826.47;;;31.61;32.52
42169;BME280;27838;43.858;25.974;2022-09-09T12:14:57;100825.91;;;31.57;31.79
42169;BME280;27838;43.858;25.974;2022-09-09T12:17:27;100824.22;;;31.56;32.41
42169;BME280;27838;43.858;25.974;2022-09-09T12:20:11;100825.78;;;31.59;32.03
42169;BME280;27838;43.858;25.974;2022-09-09T12:25:43;100810.03;;;31.54;32.58
42169;BME280;27838;43.858;25.974;2022-09-09T12:28:22;100817.38;;;31.52;34.61
42169;BME280;27838;43.858;25.974;2022-09-09T12:33:53;100808.22;;;31.43;35.09
42169;BME280;27838;43.858;25.974;2022-09-09T12:36:29;100805.09;;;31.38;34.63
42169;BME280;27838;43.858;25.974;2022-09-09T12:38:59;100800.22;;;31.32;33.34
42169;BME280;27838;43.858;25.974;2022-09-09T12:41:36;100791.19;;;31.33;33.81
42169;BME280;27838;43.858;25.974;2022-09-09T12:44:09;100786.63;;;31.34;34.31
42169;BME280;27838;43.858;25.974;2022-09-09T12:46:39;100787.47;;;31.34;34.09
42169;BME280;27838;43.858;25.974;2022-09-09T12:49:42;100784.97;;;31.42;34.75
42169;BME280;27838;43.858;25.974;2022-09-09T12:54:50;100772.31;;;31.54;33.92
42169;BME280;27838;43.858;25.974;2022-09-09T12:57:19;100773.16;;;31.55;34.62
42169;BME280;27838;43.858;25.974;2022-09-09T12:59:49;100773.16;;;31.55;35.41
42169;BME280;27838;43.858;25.974;2022-09-09T13:02:22;100768.03;;;31.52;35.46
42169;BME280;27838;43.858;25.974;2022-09-09T13:04:49;100753.88;;;31.50;34.62
42169;BME280;27838;43.858;25.974;2022-09-09T13:07:18;100760.69;;;31.54;33.66
42169;BME280;27838;43.858;25.974;2022-09-09T13:09:46;100749.50;;;31.58;34.17
42169;BME280;27838;43.858;25.974;2022-09-09T13:12:19;100748.53;;;31.59;34.01
42169;BME280;27838;43.858;25.974;2022-09-09T13:14:49;100745.53;;;31.62;34.08
42169;BME280;27838;43.858;25.974;2022-09-09T13:17:24;100751.50;;;31.66;33.62
42169;BME280;27838;43.858;25.974;2022-09-09T13:19:51;100747.38;;;31.62;34.19
42169;BME280;27838;43.858;25.974;2022-09-09T13:27:35;100750.94;;;31.62;33.63
42169;BME280;27838;43.858;25.974;2022-09-09T13:35:56;100748.66;;;31.58;34.21
42169;BME280;27838;43.858;25.974;2022-09-09T13:38:24;100754.56;;;31.52;33.87
42169;BME280;27838;43.858;25.974;2022-09-09T13:41:02;100750.44;;;31.48;34.34
42169;BME280;27838;43.858;25.974;2022-09-09T13:43:41;100752.66;;;31.42;34.74
42169;BME280;27838;43.858;25.974;2022-09-09T13:46:37;100751.50;;;31.35;34.61
42169;BME280;27838;43.858;25.974;2022-09-09T13:51:44;100738.09;;;31.24;36.35
42169;BME280;27838;43.858;25.974;2022-09-09T13:54:13;100741.22;;;31.19;35.96
42169;BME280;27838;43.858;25.974;2022-09-09T13:56:41;100744.88;;;31.18;35.70
42169;BME280;27838;43.858;25.974;2022-09-09T13:59:12;100735.25;;;31.16;36.17
42169;BME280;27838;43.858;25.974;2022-09-09T14:01:39;100723.16;;;31.10;36.03
42169;BME280;27838;43.858;25.974;2022-09-09T14:04:07;100729.13;;;31.14;35.50
42169;BME280;27838;43.858;25.974;2022-09-09T14:06:34;100729.88;;;31.16;36.33
42169;BME280;27838;43.858;25.974;2022-09-09T14:09:04;100723.63;;;31.15;36.58
42169;BME280;27838;43.858;25.974;2022-09-09T14:11:31;100729.88;;;31.16;36.88
42169;BME280;27838;43.858;25.974;2022-09-09T14:13:57;100732.69;;;31.14;36.91
42169;BME280;27838;43.858;25.974;2022-09-09T14:16:26;100729.28;;;31.12;36.68
42169;BME280;27838;43.858;25.974;2022-09-09T14:18:53;100741.16;;;31.10;36.21
42169;BME280;27838;43.858;25.974;2022-09-09T14:21:21;100736.03;;;31.06;36.13
42169;BME280;27838;43.858;25.974;2022-09-09T14:23:48;100732.63;;;31.04;35.30
42169;BME280;27838;43.858;25.974;2022-09-09T14:26:14;100727.50;;;31.01;35.11
42169;BME280;27838;43.858;25.974;2022-09-09T14:28:41;100731.19;;;31.00;34.68
42169;BME280;27838;43.858;25.974;2022-09-09T14:31:07;100729.47;;;30.99;34.89
42169;BME280;27838;43.858;25.974;2022-09-09T14:33:35;100723.38;;;30.97;35.03
42169;BME280;27838;43.858;25.974;2022-09-09T14:36:03;100725.34;;;30.95;35.35
42169;BME280;27838;43.858;25.974;2022-09-09T14:38:31;100721.16;;;30.91;35.43
42169;BME280;27838;43.858;25.974;2022-09-09T14:40:59;100730.25;;;30.90;35.16
42169;BME280;27838;43.858;25.974;2022-09-09T14:43:28;100721.59;;;30.86;35.06
42169;BME280;27838;43.858;25.974;2022-09-09T14:45:55;100721.59;;;30.86;35.17
42169;BME280;27838;43.858;25.974;2022-09-09T14:48:21;100719.03;;;30.85;35.28
42169;BME280;27838;43.858;25.974;2022-09-09T14:50:48;100722.69;;;30.84;35.14
42169;BME280;27838;43.858;25.974;2022-09-09T14:53:16;100721.84;;;30.83;34.66
42169;BME280;27838;43.858;25.974;2022-09-09T14:55:43;100725.66;;;30.81;34.92
42169;BME280;27838;43.858;25.974;2022-09-09T14:58:11;100727.47;;;30.80;34.99
42169;BME280;27838;43.858;25.974;2022-09-09T15:00:38;100724.91;;;30.79;35.52
42169;BME280;27838;43.858;25.974;2022-09-09T15:03:06;100729.59;;;30.77;35.66
42169;BME280;27838;43.858;25.974;2022-09-09T15:05:32;100733.53;;;30.73;36.05
42169;BME280;27838;43.858;25.974;2022-09-09T15:07:59;100729.41;;;30.68;36.19